Aniwa, Wisconsin
Current Conditions -  °F | °C
As of 5:15 AM on Sunday 23 Nov 2014 (Local Time) from KAIG Reporting Station
Moderate Fog Moderate Fog  
Wind Chill: -1°   Ceiling: 300
Heat Index:   Visibility: 0.25mi
Dew Point:   Wind: 10mph
Humidity: 100%   Direction: 170°S
Pressure: 29.58"   Gusts: NA
Location:  45.01°N, 89.21°W
Report Text: KAIG 231115Z AUTO 17009KT 1/4SM FG OVC003 03/03 A2958 RMK AO2 T00260026
Loading
Personal Weather Stations






























Interactive Weather Map New forecast layout! Learn more

10-Day Weather Forecast

Advertisements
Track Severe Weather on mobile